EWG4YJ LOWG-EDDL
Flight info
| Callsign | EWG4YJ |
|---|---|
| Flight time | N/A |
| Altitude | 38000 |
| Route | MILGO6G/16C MILGO DCT DEXIT L850 LALIN L604 SULUS T852 TESDU DCT AMETU T852 TINSA T854 DOMUX DOMUX1A |
| Aircraft | A320/M-SDE3FGHIRWY/LB1 |
Departure
| Time | 2026-05-03 20:15 |
|---|---|
| Airport | Graz Airport (LOWG) |
Arrival
| Time | N/A |
|---|---|
| Airport | Düsseldorf Airport (EDDL) |
| Time | Latitude | Longitude | Altitude | Speed | Heading |
|---|---|---|---|---|---|
| 2026-05-03 20:15 | 47.18337 | 15.17637 | 15659 ft | 364 kts | 333° |
| 2026-05-03 20:15 | 47.20619 | 15.16005 | 16348 ft | 367 kts | 333° |
| 2026-05-03 20:15 | 47.22920 | 15.14361 | 17067 ft | 369 kts | 333° |
| 2026-05-03 20:15 | 47.25236 | 15.12704 | 17753 ft | 372 kts | 333° |
| 2026-05-03 20:16 | 47.27569 | 15.11032 | 18416 ft | 374 kts | 333° |
| 2026-05-03 20:16 | 47.29917 | 15.09335 | 18979 ft | 377 kts | 331° |
| 2026-05-03 20:16 | 47.32178 | 15.07338 | 19554 ft | 380 kts | 327° |
| 2026-05-03 20:16 | 47.34432 | 15.05269 | 20148 ft | 383 kts | 327° |
| 2026-05-03 20:17 | 47.36703 | 15.03183 | 20718 ft | 386 kts | 327° |
| 2026-05-03 20:17 | 47.38993 | 15.01077 | 21322 ft | 388 kts | 327° |
| 2026-05-03 20:17 | 47.41261 | 14.98991 | 21898 ft | 391 kts | 327° |
| 2026-05-03 20:17 | 47.43583 | 14.96856 | 22459 ft | 394 kts | 327° |
| 2026-05-03 20:18 | 47.45917 | 14.94707 | 23053 ft | 397 kts | 326° |
| 2026-05-03 20:18 | 47.48272 | 14.92539 | 23622 ft | 400 kts | 327° |
| 2026-05-03 20:18 | 47.50642 | 14.90356 | 24102 ft | 402 kts | 327° |
| 2026-05-03 20:18 | 47.53020 | 14.88159 | 24571 ft | 404 kts | 327° |
| 2026-05-03 20:19 | 47.55404 | 14.85957 | 25057 ft | 405 kts | 327° |
| 2026-05-03 20:19 | 47.57797 | 14.83745 | 25514 ft | 406 kts | 327° |
| 2026-05-03 20:19 | 47.60200 | 14.81519 | 25976 ft | 407 kts | 327° |
| 2026-05-03 20:19 | 47.62603 | 14.79286 | 26414 ft | 409 kts | 327° |
| 2026-05-03 20:20 | 47.65029 | 14.77033 | 26808 ft | 412 kts | 326° |
| 2026-05-03 20:20 | 47.67458 | 14.74776 | 27239 ft | 413 kts | 327° |
| 2026-05-03 20:20 | 47.69899 | 14.72504 | 27640 ft | 415 kts | 327° |
| 2026-05-03 20:20 | 47.72351 | 14.70218 | 28019 ft | 418 kts | 327° |
| 2026-05-03 20:21 | 47.74816 | 14.67916 | 28410 ft | 420 kts | 327° |
| 2026-05-03 20:21 | 47.77294 | 14.65599 | 28799 ft | 422 kts | 327° |
| 2026-05-03 20:21 | 47.79782 | 14.63269 | 29154 ft | 424 kts | 327° |
| 2026-05-03 20:21 | 47.82284 | 14.60928 | 29514 ft | 426 kts | 327° |
| 2026-05-03 20:22 | 47.84764 | 14.58605 | 29873 ft | 428 kts | 327° |
| 2026-05-03 20:22 | 47.87283 | 14.56241 | 30210 ft | 429 kts | 327° |
| 2026-05-03 20:22 | 47.89813 | 14.53862 | 30505 ft | 431 kts | 327° |
| 2026-05-03 20:22 | 47.92350 | 14.51474 | 30738 ft | 433 kts | 327° |
| 2026-05-03 20:23 | 47.94910 | 14.49067 | 30980 ft | 436 kts | 327° |
| 2026-05-03 20:23 | 47.97481 | 14.46650 | 31242 ft | 438 kts | 327° |
| 2026-05-03 20:23 | 48.00061 | 14.44219 | 31503 ft | 439 kts | 327° |
| 2026-05-03 20:23 | 48.02638 | 14.41787 | 31859 ft | 438 kts | 327° |
| 2026-05-03 20:24 | 48.05206 | 14.39357 | 32243 ft | 436 kts | 327° |
| 2026-05-03 20:24 | 48.07766 | 14.36931 | 32624 ft | 435 kts | 327° |
| 2026-05-03 20:24 | 48.10314 | 14.34510 | 33002 ft | 433 kts | 327° |
| 2026-05-03 20:24 | 48.12855 | 14.32092 | 33373 ft | 432 kts | 327° |
| 2026-05-03 20:25 | 48.15388 | 14.29680 | 33754 ft | 431 kts | 327° |
| 2026-05-03 20:25 | 48.17917 | 14.27274 | 34112 ft | 430 kts | 327° |
| 2026-05-03 20:25 | 48.20435 | 14.24879 | 34440 ft | 429 kts | 327° |
| 2026-05-03 20:25 | 48.22954 | 14.22480 | 34696 ft | 429 kts | 326° |
| 2026-05-03 20:26 | 48.25475 | 14.20072 | 34943 ft | 430 kts | 326° |
| 2026-05-03 20:26 | 48.27991 | 14.17663 | 35208 ft | 429 kts | 326° |
| 2026-05-03 20:26 | 48.30507 | 14.15253 | 35477 ft | 429 kts | 326° |
| 2026-05-03 20:26 | 48.33022 | 14.12846 | 35739 ft | 428 kts | 326° |
| 2026-05-03 20:27 | 48.35534 | 14.10438 | 35992 ft | 428 kts | 326° |
| 2026-05-03 20:27 | 48.38040 | 14.08026 | 36246 ft | 427 kts | 326° |
| 2026-05-03 20:27 | 48.40541 | 14.05612 | 36499 ft | 427 kts | 326° |
| 2026-05-03 20:27 | 48.43041 | 14.03202 | 36723 ft | 426 kts | 326° |
| 2026-05-03 20:28 | 48.45503 | 14.00825 | 36971 ft | 426 kts | 326° |
| 2026-05-03 20:28 | 48.47998 | 13.98417 | 37185 ft | 426 kts | 326° |
| 2026-05-03 20:28 | 48.50490 | 13.96011 | 37405 ft | 426 kts | 326° |
| 2026-05-03 20:28 | 48.52988 | 13.93600 | 37583 ft | 427 kts | 326° |
| 2026-05-03 20:29 | 48.55488 | 13.91184 | 37758 ft | 427 kts | 325° |
| 2026-05-03 20:29 | 48.57989 | 13.88760 | 37919 ft | 427 kts | 325° |
| 2026-05-03 20:29 | 48.60485 | 13.86337 | 37955 ft | 426 kts | 325° |
| 2026-05-03 20:30 | 48.65468 | 13.81481 | 37950 ft | 426 kts | 325° |
| 2026-05-03 20:30 | 48.70443 | 13.76625 | 37968 ft | 425 kts | 325° |
| 2026-05-03 20:31 | 48.75018 | 13.71053 | 37952 ft | 421 kts | 309° |
| 2026-05-03 20:31 | 48.78116 | 13.63606 | 37963 ft | 418 kts | 290° |
| 2026-05-03 20:32 | 48.80193 | 13.55380 | 37955 ft | 418 kts | 289° |
| 2026-05-03 20:32 | 48.82270 | 13.47143 | 37951 ft | 418 kts | 289° |
| 2026-05-03 20:33 | 48.84340 | 13.38897 | 37953 ft | 418 kts | 289° |
| 2026-05-03 20:33 | 48.86398 | 13.30637 | 37953 ft | 418 kts | 289° |
| 2026-05-03 20:34 | 48.89116 | 13.22840 | 37944 ft | 421 kts | 306° |
| 2026-05-03 20:34 | 48.93175 | 13.16373 | 37942 ft | 424 kts | 313° |
| 2026-05-03 20:35 | 48.97356 | 13.10029 | 37957 ft | 424 kts | 312° |
| 2026-05-03 20:35 | 49.01523 | 13.03656 | 37953 ft | 425 kts | 312° |
| 2026-05-03 20:36 | 49.05658 | 12.97313 | 37967 ft | 425 kts | 312° |
| 2026-05-03 20:36 | 49.09824 | 12.90919 | 37969 ft | 425 kts | 312° |
| 2026-05-03 20:37 | 49.13986 | 12.84519 | 37966 ft | 425 kts | 312° |
| 2026-05-03 20:37 | 49.18143 | 12.78113 | 37957 ft | 425 kts | 312° |
| 2026-05-03 20:38 | 49.22297 | 12.71684 | 37973 ft | 425 kts | 312° |
| 2026-05-03 20:38 | 49.26448 | 12.65252 | 37966 ft | 425 kts | 312° |
| 2026-05-03 20:39 | 49.30590 | 12.58810 | 37985 ft | 425 kts | 312° |
| 2026-05-03 20:39 | 49.34039 | 12.51585 | 37979 ft | 419 kts | 294° |
| 2026-05-03 20:40 | 49.35803 | 12.44695 | 37968 ft | 418 kts | 287° |